Terminal Aerodrome Forecast
Issued by NWS

Home | Current Version | Previous Version | Text Only | Print | Product List | Glossary On
Versions: 1 2 3 4 5 6 7 8 9 10 11 12 13 14 15
243
FTUS46 KMFR 240544
TAFOTH
TAF
KOTH 240544Z 2406/2506 19010G16KT P6SM -RA SCT008 BKN015 OVC040
      WS020/20040KT
     FM240900 19014G22KT 5SM RA BKN008 OVC015 WS020/21045KT
     FM241200 22020G30KT 5SM -SHRA BR BKN008 OVC015
     FM241800 24012G20KT 5SM -SHRA BR SCT008 OVC015
     FM242100 29011KT 5SM -SHRA BR SCT008 OVC015
     FM250400 21005KT P6SM OVC015=

USA.gov is the U.S. government's official web portal to all federal, state and local government web resources and services.